Thursday, September 20, 2018, 6:20 PM EDT
Back to Local

KMTP, Montauk Airport

Location: Montauk, NY, United States Lat: 41.067
Local Time: 6:20 PM EDT (22:20 GMT) Lon: -71.917
Time Zone: US/Eastern Elev: 6 ft

Show me the last for .
Show Coded

Time T Td Feel RH Dir Speed Gust Alt SLP Vis Weather Sky Remarks
2018-09-20 17:54 67 60 - 78 Variable 5 - 30.26 30.25 0 None
2018-09-20 16:54 68 60 - 75 Variable 6 - 30.24 30.24 0 None
2018-09-20 15:54 70 59 - 68 90° 7 - 30.24 30.24 0 None
2018-09-20 14:54 70 59 - 68 Variable 6 - 30.23 30.23 0 None
2018-09-20 13:54 71 59 76 65 40° 8 - 30.24 30.24 0 6-hr Min Temp (2pm): 63.0°F
6-hr Max Temp (2pm): 72.0°F
2018-09-20 12:54 71 59 76 65 40° 9 - 30.25 30.24 0 None
2018-09-20 11:54 70 59 - 68 40° 7 - 30.25 30.24 0 None
2018-09-20 10:54 68 59 - 72 40° 8 - 30.25 30.25 0 None
2018-09-20 09:54 65 59 - 81 40° 7 16 30.22 30.22 0 None
2018-09-20 08:54 64 59 - 83 30° 10 17 30.20 30.20 0 None
2018-09-20 07:54 63 58 - 83 30° 10 - 30.18 30.18 0 6-hr Min Temp (8am): 62.1°F
6-hr Max Temp (8am): 64.0°F
2018-09-20 06:54 62 58 - 86 40° 9 18 30.15 30.15 0 None
2018-09-20 05:54 63 58 - 83 50° 9 - 30.13 30.13 0 None
2018-09-20 04:54 62 58 - 86 40° 10 20 30.12 30.11 0 None
2018-09-20 03:54 62 58 - 86 30° 12 20 30.11 30.11 0 None
2018-09-20 02:54 64 59 - 83 20° 9 - 30.11 30.10 0 None
2018-09-20 01:54 63 57 - 80 50° 10 17 30.10 30.09 0 6-hr Min Temp (2am): 62.1°F
6-hr Max Temp (2am): 64.9°F
2018-09-20 00:54 63 57 - 80 30° 12 - 30.10 30.10 0 24-hr Min Temp (1am): 63.0°F
24-hr Max Temp (1am): 72.0°F
2018-09-19 23:54 63 57 - 80 30° 8 - 30.09 30.09 0 None
2018-09-19 22:54 63 57 - 80 50° 9 17 30.08 30.07 0 None
2018-09-19 21:54 63 58 - 83 60° 12 20 30.07 30.06 0 None
2018-09-19 20:54 65 59 - 81 40° 10 20 30.04 30.04 0 None
2018-09-19 19:54 65 60 - 84 70° 10 18 30.02 30.02 0 6-hr Min Temp (8pm): 64.9°F
6-hr Max Temp (8pm): 72.0°F
2018-09-19 18:54 67 61 - 81 50° 8 18 30.01 30.00 0 None

Support USWX by starting your Amazon purchase here.